sensor_id;sensor_type;location;lat;lon;timestamp;P1;durP1;ratioP1;P2;durP2;ratioP2
30605;SDS011;17371;51.328;3.860;2023-06-22T00:01:09;4.00;;;2.23;;
30605;SDS011;17371;51.328;3.860;2023-06-22T00:03:34;3.50;;;2.30;;
30605;SDS011;17371;51.328;3.860;2023-06-22T00:06:01;5.27;;;2.50;;
30605;SDS011;17371;51.328;3.860;2023-06-22T00:08:26;5.70;;;2.45;;
30605;SDS011;17371;51.328;3.860;2023-06-22T00:10:51;4.30;;;2.47;;
30605;SDS011;17371;51.328;3.860;2023-06-22T00:13:17;4.50;;;2.53;;
30605;SDS011;17371;51.328;3.860;2023-06-22T00:15:42;3.30;;;2.17;;
30605;SDS011;17371;51.328;3.860;2023-06-22T00:18:08;3.23;;;1.97;;
30605;SDS011;17371;51.328;3.860;2023-06-22T00:20:34;5.10;;;2.30;;
30605;SDS011;17371;51.328;3.860;2023-06-22T00:23:01;4.40;;;2.27;;
30605;SDS011;17371;51.328;3.860;2023-06-22T00:25:26;3.92;;;2.00;;
30605;SDS011;17371;51.328;3.860;2023-06-22T00:27:52;5.77;;;2.33;;
30605;SDS011;17371;51.328;3.860;2023-06-22T00:30:17;3.70;;;2.00;;
30605;SDS011;17371;51.328;3.860;2023-06-22T00:32:43;3.75;;;2.17;;
30605;SDS011;17371;51.328;3.860;2023-06-22T00:35:09;3.95;;;2.50;;
30605;SDS011;17371;51.328;3.860;2023-06-22T00:37:35;3.65;;;2.05;;
30605;SDS011;17371;51.328;3.860;2023-06-22T00:40:01;4.50;;;2.17;;
30605;SDS011;17371;51.328;3.860;2023-06-22T00:42:27;3.97;;;2.30;;
30605;SDS011;17371;51.328;3.860;2023-06-22T00:44:52;3.80;;;2.30;;
30605;SDS011;17371;51.328;3.860;2023-06-22T00:47:18;3.20;;;2.10;;
30605;SDS011;17371;51.328;3.860;2023-06-22T00:49:43;4.45;;;2.20;;
30605;SDS011;17371;51.328;3.860;2023-06-22T00:52:09;3.97;;;2.20;;
30605;SDS011;17371;51.328;3.860;2023-06-22T00:54:35;5.03;;;2.33;;
30605;SDS011;17371;51.328;3.860;2023-06-22T00:57:02;4.13;;;2.30;;
30605;SDS011;17371;51.328;3.860;2023-06-22T00:59:27;4.15;;;2.38;;
30605;SDS011;17371;51.328;3.860;2023-06-22T01:01:53;6.27;;;2.40;;
30605;SDS011;17371;51.328;3.860;2023-06-22T01:04:18;5.10;;;2.83;;
30605;SDS011;17371;51.328;3.860;2023-06-22T01:06:45;3.10;;;2.13;;
30605;SDS011;17371;51.328;3.860;2023-06-22T01:09:19;6.90;;;2.53;;
30605;SDS011;17371;51.328;3.860;2023-06-22T01:11:49;3.85;;;2.30;;
30605;SDS011;17371;51.328;3.860;2023-06-22T01:14:21;5.43;;;2.42;;
30605;SDS011;17371;51.328;3.860;2023-06-22T01:16:49;3.63;;;2.30;;
30605;SDS011;17371;51.328;3.860;2023-06-22T01:19:20;5.80;;;2.97;;
30605;SDS011;17371;51.328;3.860;2023-06-22T01:21:53;5.88;;;2.42;;
30605;SDS011;17371;51.328;3.860;2023-06-22T01:24:22;4.57;;;2.72;;
30605;SDS011;17371;51.328;3.860;2023-06-22T01:26:54;7.03;;;2.67;;
30605;SDS011;17371;51.328;3.860;2023-06-22T01:29:26;5.30;;;3.10;;
30605;SDS011;17371;51.328;3.860;2023-06-22T01:31:52;5.03;;;2.88;;
30605;SDS011;17371;51.328;3.860;2023-06-22T01:34:19;5.53;;;3.35;;
30605;SDS011;17371;51.328;3.860;2023-06-22T01:36:45;7.30;;;3.58;;
30605;SDS011;17371;51.328;3.860;2023-06-22T01:39:11;5.97;;;3.38;;
30605;SDS011;17371;51.328;3.860;2023-06-22T01:41:37;6.40;;;2.93;;
30605;SDS011;17371;51.328;3.860;2023-06-22T01:44:03;6.43;;;3.60;;
30605;SDS011;17371;51.328;3.860;2023-06-22T01:46:31;9.45;;;4.20;;
30605;SDS011;17371;51.328;3.860;2023-06-22T01:48:57;7.05;;;3.53;;
30605;SDS011;17371;51.328;3.860;2023-06-22T01:51:22;6.50;;;3.80;;
30605;SDS011;17371;51.328;3.860;2023-06-22T01:53:48;7.53;;;3.58;;
30605;SDS011;17371;51.328;3.860;2023-06-22T01:56:15;8.13;;;4.30;;
30605;SDS011;17371;51.328;3.860;2023-06-22T01:58:43;10.13;;;4.75;;
30605;SDS011;17371;51.328;3.860;2023-06-22T02:01:13;9.47;;;3.97;;
30605;SDS011;17371;51.328;3.860;2023-06-22T02:03:41;9.48;;;4.10;;
30605;SDS011;17371;51.328;3.860;2023-06-22T02:06:08;9.23;;;4.28;;
30605;SDS011;17371;51.328;3.860;2023-06-22T02:08:46;10.32;;;4.72;;
30605;SDS011;17371;51.328;3.860;2023-06-22T02:11:13;9.82;;;4.75;;
30605;SDS011;17371;51.328;3.860;2023-06-22T02:13:40;10.13;;;4.73;;
30605;SDS011;17371;51.328;3.860;2023-06-22T02:16:05;10.60;;;4.97;;
30605;SDS011;17371;51.328;3.860;2023-06-22T02:18:31;13.37;;;5.70;;
30605;SDS011;17371;51.328;3.860;2023-06-22T02:20:58;12.67;;;5.30;;
30605;SDS011;17371;51.328;3.860;2023-06-22T02:23:23;9.73;;;5.32;;
30605;SDS011;17371;51.328;3.860;2023-06-22T02:25:48;11.03;;;5.33;;
30605;SDS011;17371;51.328;3.860;2023-06-22T02:28:14;10.83;;;5.57;;
30605;SDS011;17371;51.328;3.860;2023-06-22T02:30:39;9.88;;;5.00;;
30605;SDS011;17371;51.328;3.860;2023-06-22T02:33:05;9.50;;;5.03;;
30605;SDS011;17371;51.328;3.860;2023-06-22T02:35:30;10.53;;;4.80;;
30605;SDS011;17371;51.328;3.860;2023-06-22T02:37:57;8.00;;;4.17;;
30605;SDS011;17371;51.328;3.860;2023-06-22T02:40:22;9.38;;;4.75;;
30605;SDS011;17371;51.328;3.860;2023-06-22T02:42:47;7.67;;;4.40;;
30605;SDS011;17371;51.328;3.860;2023-06-22T02:45:13;8.77;;;4.60;;
30605;SDS011;17371;51.328;3.860;2023-06-22T02:47:38;9.82;;;4.40;;
30605;SDS011;17371;51.328;3.860;2023-06-22T02:50:04;9.03;;;4.17;;
30605;SDS011;17371;51.328;3.860;2023-06-22T02:52:30;8.73;;;4.20;;
30605;SDS011;17371;51.328;3.860;2023-06-22T02:54:57;7.57;;;3.87;;
30605;SDS011;17371;51.328;3.860;2023-06-22T02:57:22;7.55;;;4.13;;
30605;SDS011;17371;51.328;3.860;2023-06-22T02:59:48;10.03;;;4.20;;
30605;SDS011;17371;51.328;3.860;2023-06-22T03:02:13;8.57;;;4.33;;
30605;SDS011;17371;51.328;3.860;2023-06-22T03:04:38;10.80;;;5.40;;
30605;SDS011;17371;51.328;3.860;2023-06-22T03:07:04;10.50;;;5.03;;
30605;SDS011;17371;51.328;3.860;2023-06-22T03:09:29;14.48;;;6.00;;
30605;SDS011;17371;51.328;3.860;2023-06-22T03:11:56;14.33;;;6.70;;
30605;SDS011;17371;51.328;3.860;2023-06-22T03:14:22;20.02;;;7.47;;
30605;SDS011;17371;51.328;3.860;2023-06-22T03:16:47;19.93;;;8.00;;
30605;SDS011;17371;51.328;3.860;2023-06-22T03:19:13;17.23;;;8.23;;
30605;SDS011;17371;51.328;3.860;2023-06-22T03:21:38;17.55;;;8.23;;
30605;SDS011;17371;51.328;3.860;2023-06-22T03:24:04;21.23;;;9.67;;
30605;SDS011;17371;51.328;3.860;2023-06-22T03:26:30;20.95;;;9.60;;
30605;SDS011;17371;51.328;3.860;2023-06-22T03:28:56;19.23;;;9.43;;
30605;SDS011;17371;51.328;3.860;2023-06-22T03:31:22;22.85;;;9.80;;
30605;SDS011;17371;51.328;3.860;2023-06-22T03:33:48;23.40;;;9.97;;
30605;SDS011;17371;51.328;3.860;2023-06-22T03:36:13;23.00;;;10.30;;
30605;SDS011;17371;51.328;3.860;2023-06-22T03:38:38;20.63;;;10.00;;
30605;SDS011;17371;51.328;3.860;2023-06-22T03:41:04;21.17;;;10.00;;
30605;SDS011;17371;51.328;3.860;2023-06-22T03:43:29;18.83;;;8.90;;
30605;SDS011;17371;51.328;3.860;2023-06-22T03:45:56;17.97;;;9.33;;
30605;SDS011;17371;51.328;3.860;2023-06-22T03:48:21;19.50;;;9.10;;
30605;SDS011;17371;51.328;3.860;2023-06-22T03:50:47;19.87;;;8.83;;
30605;SDS011;17371;51.328;3.860;2023-06-22T03:53:12;20.70;;;9.57;;
30605;SDS011;17371;51.328;3.860;2023-06-22T03:55:40;21.20;;;9.50;;
30605;SDS011;17371;51.328;3.860;2023-06-22T03:58:11;19.15;;;9.10;;
30605;SDS011;17371;51.328;3.860;2023-06-22T04:00:36;16.07;;;8.43;;
30605;SDS011;17371;51.328;3.860;2023-06-22T04:03:03;17.00;;;8.40;;
30605;SDS011;17371;51.328;3.860;2023-06-22T04:05:28;20.55;;;8.85;;
30605;SDS011;17371;51.328;3.860;2023-06-22T04:07:53;17.65;;;8.73;;
30605;SDS011;17371;51.328;3.860;2023-06-22T04:10:19;21.10;;;8.90;;
30605;SDS011;17371;51.328;3.860;2023-06-22T04:12:44;20.23;;;8.43;;
30605;SDS011;17371;51.328;3.860;2023-06-22T04:15:10;17.80;;;9.07;;
30605;SDS011;17371;51.328;3.860;2023-06-22T04:17:35;17.35;;;8.38;;
30605;SDS011;17371;51.328;3.860;2023-06-22T04:20:02;19.20;;;8.73;;
30605;SDS011;17371;51.328;3.860;2023-06-22T04:22:28;15.18;;;8.50;;
30605;SDS011;17371;51.328;3.860;2023-06-22T04:24:53;20.37;;;8.23;;
30605;SDS011;17371;51.328;3.860;2023-06-22T04:27:18;19.20;;;8.53;;
30605;SDS011;17371;51.328;3.860;2023-06-22T04:29:44;18.03;;;9.10;;
30605;SDS011;17371;51.328;3.860;2023-06-22T04:32:09;19.73;;;9.47;;
30605;SDS011;17371;51.328;3.860;2023-06-22T04:34:34;18.98;;;8.70;;
30605;SDS011;17371;51.328;3.860;2023-06-22T04:37:01;20.00;;;8.47;;
30605;SDS011;17371;51.328;3.860;2023-06-22T04:39:27;19.55;;;9.02;;
30605;SDS011;17371;51.328;3.860;2023-06-22T04:41:52;23.63;;;8.00;;
30605;SDS011;17371;51.328;3.860;2023-06-22T04:44:18;17.90;;;8.87;;
30605;SDS011;17371;51.328;3.860;2023-06-22T04:46:43;20.98;;;9.05;;
30605;SDS011;17371;51.328;3.860;2023-06-22T04:49:09;20.13;;;8.63;;
30605;SDS011;17371;51.328;3.860;2023-06-22T04:51:39;21.97;;;9.53;;
30605;SDS011;17371;51.328;3.860;2023-06-22T04:54:06;19.63;;;8.77;;
30605;SDS011;17371;51.328;3.860;2023-06-22T04:56:31;21.88;;;9.52;;
30605;SDS011;17371;51.328;3.860;2023-06-22T04:58:57;18.10;;;7.80;;
30605;SDS011;17371;51.328;3.860;2023-06-22T05:01:22;18.80;;;8.90;;
30605;SDS011;17371;51.328;3.860;2023-06-22T05:03:48;18.45;;;8.52;;
30605;SDS011;17371;51.328;3.860;2023-06-22T05:06:13;18.77;;;9.57;;
30605;SDS011;17371;51.328;3.860;2023-06-22T05:08:38;19.90;;;9.40;;
30605;SDS011;17371;51.328;3.860;2023-06-22T05:11:05;18.07;;;8.50;;
30605;SDS011;17371;51.328;3.860;2023-06-22T05:13:31;16.73;;;8.77;;
30605;SDS011;17371;51.328;3.860;2023-06-22T05:15:56;16.27;;;8.33;;
30605;SDS011;17371;51.328;3.860;2023-06-22T05:18:21;15.10;;;7.38;;
30605;SDS011;17371;51.328;3.860;2023-06-22T05:20:47;15.97;;;7.40;;
30605;SDS011;17371;51.328;3.860;2023-06-22T05:23:12;14.03;;;7.67;;
30605;SDS011;17371;51.328;3.860;2023-06-22T05:25:37;14.63;;;7.33;;
30605;SDS011;17371;51.328;3.860;2023-06-22T05:28:04;13.37;;;6.93;;
30605;SDS011;17371;51.328;3.860;2023-06-22T05:30:30;13.02;;;6.72;;
30605;SDS011;17371;51.328;3.860;2023-06-22T05:32:55;20.43;;;7.70;;
30605;SDS011;17371;51.328;3.860;2023-06-22T05:35:20;13.13;;;6.72;;
30605;SDS011;17371;51.328;3.860;2023-06-22T05:37:46;11.90;;;7.22;;
30605;SDS011;17371;51.328;3.860;2023-06-22T05:40:12;13.43;;;7.10;;
30605;SDS011;17371;51.328;3.860;2023-06-22T05:42:37;12.05;;;7.00;;
30605;SDS011;17371;51.328;3.860;2023-06-22T05:45:05;12.67;;;7.00;;
30605;SDS011;17371;51.328;3.860;2023-06-22T05:47:31;12.55;;;7.40;;
30605;SDS011;17371;51.328;3.860;2023-06-22T05:49:56;12.60;;;7.50;;
30605;SDS011;17371;51.328;3.860;2023-06-22T05:52:21;11.67;;;7.03;;
30605;SDS011;17371;51.328;3.860;2023-06-22T05:54:47;11.87;;;6.53;;
30605;SDS011;17371;51.328;3.860;2023-06-22T05:57:12;12.50;;;7.17;;
30605;SDS011;17371;51.328;3.860;2023-06-22T05:59:38;11.88;;;7.32;;
30605;SDS011;17371;51.328;3.860;2023-06-22T06:02:05;15.87;;;6.80;;
30605;SDS011;17371;51.328;3.860;2023-06-22T06:04:30;12.77;;;7.57;;
30605;SDS011;17371;51.328;3.860;2023-06-22T06:06:55;12.33;;;6.60;;
30605;SDS011;17371;51.328;3.860;2023-06-22T06:09:21;11.50;;;6.73;;
30605;SDS011;17371;51.328;3.860;2023-06-22T06:11:46;15.77;;;7.57;;
30605;SDS011;17371;51.328;3.860;2023-06-22T06:14:12;15.13;;;7.90;;
30605;SDS011;17371;51.328;3.860;2023-06-22T06:16:37;16.37;;;8.13;;
30605;SDS011;17371;51.328;3.860;2023-06-22T06:19:04;12.98;;;7.22;;
30605;SDS011;17371;51.328;3.860;2023-06-22T06:21:29;12.90;;;7.33;;
30605;SDS011;17371;51.328;3.860;2023-06-22T06:23:54;18.98;;;8.13;;
30605;SDS011;17371;51.328;3.860;2023-06-22T06:26:20;13.50;;;7.93;;
30605;SDS011;17371;51.328;3.860;2023-06-22T06:28:45;13.13;;;8.07;;
30605;SDS011;17371;51.328;3.860;2023-06-22T06:31:11;12.23;;;7.90;;
30605;SDS011;17371;51.328;3.860;2023-06-22T06:33:36;16.02;;;8.63;;
30605;SDS011;17371;51.328;3.860;2023-06-22T06:36:03;16.67;;;8.00;;
30605;SDS011;17371;51.328;3.860;2023-06-22T06:38:28;12.37;;;7.60;;
30605;SDS011;17371;51.328;3.860;2023-06-22T06:40:54;13.73;;;7.70;;
30605;SDS011;17371;51.328;3.860;2023-06-22T06:43:19;13.47;;;7.93;;
30605;SDS011;17371;51.328;3.860;2023-06-22T06:45:45;13.70;;;7.90;;
30605;SDS011;17371;51.328;3.860;2023-06-22T06:48:10;17.30;;;8.27;;
30605;SDS011;17371;51.328;3.860;2023-06-22T06:50:35;13.83;;;7.73;;
30605;SDS011;17371;51.328;3.860;2023-06-22T06:53:02;14.30;;;8.17;;
30605;SDS011;17371;51.328;3.860;2023-06-22T06:55:27;12.65;;;8.20;;
30605;SDS011;17371;51.328;3.860;2023-06-22T06:57:53;16.20;;;8.30;;
30605;SDS011;17371;51.328;3.860;2023-06-22T07:00:18;17.35;;;7.65;;
30605;SDS011;17371;51.328;3.860;2023-06-22T07:02:44;14.53;;;8.07;;
30605;SDS011;17371;51.328;3.860;2023-06-22T07:05:11;14.70;;;8.02;;
30605;SDS011;17371;51.328;3.860;2023-06-22T07:07:37;14.20;;;7.82;;
30605;SDS011;17371;51.328;3.860;2023-06-22T07:10:04;16.97;;;8.33;;
30605;SDS011;17371;51.328;3.860;2023-06-22T07:12:30;12.52;;;7.45;;
30605;SDS011;17371;51.328;3.860;2023-06-22T07:15:00;13.17;;;7.93;;
30605;SDS011;17371;51.328;3.860;2023-06-22T07:17:28;10.38;;;6.80;;
30605;SDS011;17371;51.328;3.860;2023-06-22T07:19:53;11.97;;;7.67;;
30605;SDS011;17371;51.328;3.860;2023-06-22T07:22:18;11.90;;;7.25;;
30605;SDS011;17371;51.328;3.860;2023-06-22T07:24:44;13.45;;;7.32;;
30605;SDS011;17371;51.328;3.860;2023-06-22T07:27:11;14.87;;;7.93;;
30605;SDS011;17371;51.328;3.860;2023-06-22T07:29:36;14.18;;;7.95;;
30605;SDS011;17371;51.328;3.860;2023-06-22T07:32:01;16.02;;;8.05;;
30605;SDS011;17371;51.328;3.860;2023-06-22T07:34:27;13.17;;;7.90;;
30605;SDS011;17371;51.328;3.860;2023-06-22T07:36:52;15.43;;;8.20;;
30605;SDS011;17371;51.328;3.860;2023-06-22T07:39:18;13.73;;;7.80;;
30605;SDS011;17371;51.328;3.860;2023-06-22T07:41:43;12.52;;;7.32;;
30605;SDS011;17371;51.328;3.860;2023-06-22T07:44:10;12.35;;;8.02;;
30605;SDS011;17371;51.328;3.860;2023-06-22T07:46:35;13.32;;;7.13;;
30605;SDS011;17371;51.328;3.860;2023-06-22T07:49:01;14.10;;;7.57;;
30605;SDS011;17371;51.328;3.860;2023-06-22T07:51:26;13.83;;;7.80;;
30605;SDS011;17371;51.328;3.860;2023-06-22T07:53:52;11.15;;;6.43;;
30605;SDS011;17371;51.328;3.860;2023-06-22T07:56:17;15.17;;;7.60;;
30605;SDS011;17371;51.328;3.860;2023-06-22T07:58:42;13.30;;;7.30;;
30605;SDS011;17371;51.328;3.860;2023-06-22T08:01:09;12.87;;;7.30;;
30605;SDS011;17371;51.328;3.860;2023-06-22T08:03:35;11.68;;;7.68;;
30605;SDS011;17371;51.328;3.860;2023-06-22T08:06:00;11.07;;;6.97;;
30605;SDS011;17371;51.328;3.860;2023-06-22T08:08:25;13.73;;;7.60;;
30605;SDS011;17371;51.328;3.860;2023-06-22T08:10:51;12.83;;;7.07;;
30605;SDS011;17371;51.328;3.860;2023-06-22T08:13:16;13.30;;;7.53;;
30605;SDS011;17371;51.328;3.860;2023-06-22T08:15:41;12.35;;;7.38;;
30605;SDS011;17371;51.328;3.860;2023-06-22T08:18:08;16.07;;;7.63;;
30605;SDS011;17371;51.328;3.860;2023-06-22T08:20:33;13.07;;;7.50;;
30605;SDS011;17371;51.328;3.860;2023-06-22T08:22:59;16.98;;;7.95;;
30605;SDS011;17371;51.328;3.860;2023-06-22T08:25:24;14.17;;;7.90;;
30605;SDS011;17371;51.328;3.860;2023-06-22T08:27:49;12.93;;;7.67;;
30605;SDS011;17371;51.328;3.860;2023-06-22T08:30:15;13.73;;;7.23;;
30605;SDS011;17371;51.328;3.860;2023-06-22T08:32:41;13.68;;;7.22;;
30605;SDS011;17371;51.328;3.860;2023-06-22T08:35:08;12.63;;;7.13;;
30605;SDS011;17371;51.328;3.860;2023-06-22T08:37:33;10.95;;;6.97;;
30605;SDS011;17371;51.328;3.860;2023-06-22T08:39:59;12.10;;;6.53;;
30605;SDS011;17371;51.328;3.860;2023-06-22T08:42:25;13.48;;;6.80;;
30605;SDS011;17371;51.328;3.860;2023-06-22T08:44:50;14.10;;;7.00;;
30605;SDS011;17371;51.328;3.860;2023-06-22T08:47:16;11.67;;;6.87;;
30605;SDS011;17371;51.328;3.860;2023-06-22T08:49:41;11.93;;;6.10;;
30605;SDS011;17371;51.328;3.860;2023-06-22T08:52:08;11.90;;;6.60;;
30605;SDS011;17371;51.328;3.860;2023-06-22T08:54:33;12.18;;;6.82;;
30605;SDS011;17371;51.328;3.860;2023-06-22T08:56:59;11.83;;;6.40;;
30605;SDS011;17371;51.328;3.860;2023-06-22T08:59:24;11.63;;;6.23;;
30605;SDS011;17371;51.328;3.860;2023-06-22T09:01:49;11.60;;;6.20;;
30605;SDS011;17371;51.328;3.860;2023-06-22T09:04:15;10.13;;;6.53;;
30605;SDS011;17371;51.328;3.860;2023-06-22T09:06:40;12.50;;;6.73;;
30605;SDS011;17371;51.328;3.860;2023-06-22T09:09:07;11.43;;;6.60;;
30605;SDS011;17371;51.328;3.860;2023-06-22T09:11:32;10.48;;;6.25;;
30605;SDS011;17371;51.328;3.860;2023-06-22T09:13:58;10.00;;;5.97;;
30605;SDS011;17371;51.328;3.860;2023-06-22T09:16:23;11.38;;;6.20;;
30605;SDS011;17371;51.328;3.860;2023-06-22T09:18:48;13.52;;;5.85;;
30605;SDS011;17371;51.328;3.860;2023-06-22T09:21:14;9.73;;;5.33;;
30605;SDS011;17371;51.328;3.860;2023-06-22T09:23:39;12.17;;;5.17;;
30605;SDS011;17371;51.328;3.860;2023-06-22T09:26:06;9.03;;;5.10;;
30605;SDS011;17371;51.328;3.860;2023-06-22T09:28:31;8.50;;;5.00;;
30605;SDS011;17371;51.328;3.860;2023-06-22T09:30:57;7.97;;;4.07;;
30605;SDS011;17371;51.328;3.860;2023-06-22T09:33:22;8.33;;;4.43;;
30605;SDS011;17371;51.328;3.860;2023-06-22T09:35:47;8.25;;;4.40;;
30605;SDS011;17371;51.328;3.860;2023-06-22T09:38:13;7.73;;;4.10;;
30605;SDS011;17371;51.328;3.860;2023-06-22T09:40:38;7.60;;;4.53;;
30605;SDS011;17371;51.328;3.860;2023-06-22T09:43:05;9.73;;;4.60;;
30605;SDS011;17371;51.328;3.860;2023-06-22T09:45:30;7.63;;;4.43;;
30605;SDS011;17371;51.328;3.860;2023-06-22T09:47:56;12.03;;;4.60;;
30605;SDS011;17371;51.328;3.860;2023-06-22T09:50:21;7.33;;;4.20;;
30605;SDS011;17371;51.328;3.860;2023-06-22T09:52:46;8.63;;;4.32;;
30605;SDS011;17371;51.328;3.860;2023-06-22T09:55:12;8.18;;;4.07;;
30605;SDS011;17371;51.328;3.860;2023-06-22T09:57:37;7.83;;;4.20;;
30605;SDS011;17371;51.328;3.860;2023-06-22T10:00:04;7.53;;;4.70;;
30605;SDS011;17371;51.328;3.860;2023-06-22T10:02:31;8.70;;;4.78;;
30605;SDS011;17371;51.328;3.860;2023-06-22T10:04:56;7.37;;;4.07;;
30605;SDS011;17371;51.328;3.860;2023-06-22T10:07:21;7.87;;;4.17;;
30605;SDS011;17371;51.328;3.860;2023-06-22T10:09:47;8.93;;;4.43;;
30605;SDS011;17371;51.328;3.860;2023-06-22T10:12:12;10.60;;;5.70;;
30605;SDS011;17371;51.328;3.860;2023-06-22T10:14:37;10.02;;;4.78;;
30605;SDS011;17371;51.328;3.860;2023-06-22T10:17:04;8.87;;;4.80;;
30605;SDS011;17371;51.328;3.860;2023-06-22T10:19:30;8.20;;;4.70;;
30605;SDS011;17371;51.328;3.860;2023-06-22T10:21:56;7.57;;;4.27;;
30605;SDS011;17371;51.328;3.860;2023-06-22T10:24:21;8.30;;;4.20;;
30605;SDS011;17371;51.328;3.860;2023-06-22T10:26:46;5.83;;;3.30;;
30605;SDS011;17371;51.328;3.860;2023-06-22T10:29:12;6.47;;;3.40;;
30605;SDS011;17371;51.328;3.860;2023-06-22T10:31:37;5.68;;;3.35;;
30605;SDS011;17371;51.328;3.860;2023-06-22T10:34:04;5.93;;;3.27;;
30605;SDS011;17371;51.328;3.860;2023-06-22T10:36:29;6.68;;;3.25;;
30605;SDS011;17371;51.328;3.860;2023-06-22T10:38:54;7.17;;;4.00;;
30605;SDS011;17371;51.328;3.860;2023-06-22T10:41:20;6.63;;;3.50;;
30605;SDS011;17371;51.328;3.860;2023-06-22T10:43:45;9.30;;;4.10;;
30605;SDS011;17371;51.328;3.860;2023-06-22T10:46:12;7.97;;;4.13;;
30605;SDS011;17371;51.328;3.860;2023-06-22T10:48:37;9.73;;;4.20;;
30605;SDS011;17371;51.328;3.860;2023-06-22T10:51:04;7.73;;;4.30;;
30605;SDS011;17371;51.328;3.860;2023-06-22T10:53:29;7.32;;;4.00;;
30605;SDS011;17371;51.328;3.860;2023-06-22T10:55:55;6.70;;;3.97;;
30605;SDS011;17371;51.328;3.860;2023-06-22T10:58:20;7.57;;;4.10;;
30605;SDS011;17371;51.328;3.860;2023-06-22T11:00:45;9.27;;;5.03;;
30605;SDS011;17371;51.328;3.860;2023-06-22T11:03:11;7.67;;;4.37;;
30605;SDS011;17371;51.328;3.860;2023-06-22T11:05:36;9.47;;;4.63;;
30605;SDS011;17371;51.328;3.860;2023-06-22T11:08:03;10.50;;;4.90;;
30605;SDS011;17371;51.328;3.860;2023-06-22T11:10:29;8.60;;;5.05;;
30605;SDS011;17371;51.328;3.860;2023-06-22T11:12:54;10.37;;;5.27;;
30605;SDS011;17371;51.328;3.860;2023-06-22T11:15:19;9.27;;;5.37;;
30605;SDS011;17371;51.328;3.860;2023-06-22T11:17:45;10.75;;;4.68;;
30605;SDS011;17371;51.328;3.860;2023-06-22T11:20:11;8.18;;;5.03;;
30605;SDS011;17371;51.328;3.860;2023-06-22T11:22:37;8.03;;;4.80;;
30605;SDS011;17371;51.328;3.860;2023-06-22T11:25:04;9.07;;;4.65;;
30605;SDS011;17371;51.328;3.860;2023-06-22T11:27:30;11.02;;;4.70;;
30605;SDS011;17371;51.328;3.860;2023-06-22T11:29:55;7.47;;;4.83;;
30605;SDS011;17371;51.328;3.860;2023-06-22T11:32:21;11.60;;;5.03;;
30605;SDS011;17371;51.328;3.860;2023-06-22T11:34:46;8.63;;;5.10;;
30605;SDS011;17371;51.328;3.860;2023-06-22T11:37:11;8.18;;;4.72;;
30605;SDS011;17371;51.328;3.860;2023-06-22T11:39:37;11.43;;;4.77;;
30605;SDS011;17371;51.328;3.860;2023-06-22T11:42:04;8.03;;;5.10;;
30605;SDS011;17371;51.328;3.860;2023-06-22T11:44:29;10.90;;;4.78;;
30605;SDS011;17371;51.328;3.860;2023-06-22T11:46:55;8.07;;;4.73;;
30605;SDS011;17371;51.328;3.860;2023-06-22T11:49:20;8.60;;;4.77;;
30605;SDS011;17371;51.328;3.860;2023-06-22T11:51:45;8.70;;;4.43;;
30605;SDS011;17371;51.328;3.860;2023-06-22T11:54:11;9.20;;;4.88;;
30605;SDS011;17371;51.328;3.860;2023-06-22T11:56:36;8.00;;;4.43;;
30605;SDS011;17371;51.328;3.860;2023-06-22T11:59:03;9.10;;;4.97;;
30605;SDS011;17371;51.328;3.860;2023-06-22T12:01:28;9.73;;;4.95;;
30605;SDS011;17371;51.328;3.860;2023-06-22T12:03:54;8.50;;;5.20;;
30605;SDS011;17371;51.328;3.860;2023-06-22T12:06:19;7.27;;;4.07;;
30605;SDS011;17371;51.328;3.860;2023-06-22T12:08:44;9.13;;;4.97;;
30605;SDS011;17371;51.328;3.860;2023-06-22T12:11:10;8.07;;;4.57;;
30605;SDS011;17371;51.328;3.860;2023-06-22T12:13:35;9.87;;;4.10;;
30605;SDS011;17371;51.328;3.860;2023-06-22T12:16:02;8.33;;;4.80;;
30605;SDS011;17371;51.328;3.860;2023-06-22T12:18:27;8.48;;;4.57;;
30605;SDS011;17371;51.328;3.860;2023-06-22T12:20:53;8.20;;;5.03;;
30605;SDS011;17371;51.328;3.860;2023-06-22T12:23:18;9.73;;;5.10;;
30605;SDS011;17371;51.328;3.860;2023-06-22T12:25:44;9.27;;;5.27;;
30605;SDS011;17371;51.328;3.860;2023-06-22T12:28:10;10.60;;;5.30;;
30605;SDS011;17371;51.328;3.860;2023-06-22T12:30:35;12.57;;;5.30;;
30605;SDS011;17371;51.328;3.860;2023-06-22T12:33:02;8.43;;;5.20;;
30605;SDS011;17371;51.328;3.860;2023-06-22T12:35:27;8.10;;;4.90;;
30605;SDS011;17371;51.328;3.860;2023-06-22T12:37:52;9.67;;;5.43;;
30605;SDS011;17371;51.328;3.860;2023-06-22T12:40:18;9.15;;;5.45;;
30605;SDS011;17371;51.328;3.860;2023-06-22T12:42:44;9.93;;;5.20;;
30605;SDS011;17371;51.328;3.860;2023-06-22T12:45:09;9.45;;;5.63;;
30605;SDS011;17371;51.328;3.860;2023-06-22T12:47:35;8.73;;;5.07;;
30605;SDS011;17371;51.328;3.860;2023-06-22T12:50:02;10.47;;;5.43;;
30605;SDS011;17371;51.328;3.860;2023-06-22T12:52:29;12.40;;;6.03;;
30605;SDS011;17371;51.328;3.860;2023-06-22T12:54:55;10.93;;;5.45;;
30605;SDS011;17371;51.328;3.860;2023-06-22T12:57:20;9.80;;;5.90;;
30605;SDS011;17371;51.328;3.860;2023-06-22T12:59:45;9.07;;;5.37;;
30605;SDS011;17371;51.328;3.860;2023-06-22T13:02:11;10.57;;;5.70;;
30605;SDS011;17371;51.328;3.860;2023-06-22T13:04:36;9.80;;;6.17;;
30605;SDS011;17371;51.328;3.860;2023-06-22T13:07:03;9.02;;;5.45;;
30605;SDS011;17371;51.328;3.860;2023-06-22T13:09:29;10.33;;;5.60;;
30605;SDS011;17371;51.328;3.860;2023-06-22T13:11:54;10.57;;;5.50;;
30605;SDS011;17371;51.328;3.860;2023-06-22T13:14:20;10.00;;;5.40;;
30605;SDS011;17371;51.328;3.860;2023-06-22T13:16:45;11.53;;;5.20;;
30605;SDS011;17371;51.328;3.860;2023-06-22T13:19:10;11.77;;;5.90;;
30605;SDS011;17371;51.328;3.860;2023-06-22T13:21:36;17.10;;;8.47;;
30605;SDS011;17371;51.328;3.860;2023-06-22T13:24:03;22.27;;;11.13;;
30605;SDS011;17371;51.328;3.860;2023-06-22T13:26:28;26.85;;;11.48;;
30605;SDS011;17371;51.328;3.860;2023-06-22T13:28:54;24.30;;;12.67;;
30605;SDS011;17371;51.328;3.860;2023-06-22T13:31:19;26.45;;;13.52;;
30605;SDS011;17371;51.328;3.860;2023-06-22T13:33:45;25.87;;;14.07;;
30605;SDS011;17371;51.328;3.860;2023-06-22T13:36:10;27.67;;;14.77;;
30605;SDS011;17371;51.328;3.860;2023-06-22T13:38:35;28.40;;;15.43;;
30605;SDS011;17371;51.328;3.860;2023-06-22T13:41:02;29.73;;;16.27;;
30605;SDS011;17371;51.328;3.860;2023-06-22T13:43:27;34.08;;;16.50;;
30605;SDS011;17371;51.328;3.860;2023-06-22T13:45:53;30.23;;;16.10;;
30605;SDS011;17371;51.328;3.860;2023-06-22T13:48:18;32.00;;;16.00;;
30605;SDS011;17371;51.328;3.860;2023-06-22T13:50:44;30.02;;;16.77;;
30605;SDS011;17371;51.328;3.860;2023-06-22T13:53:09;33.00;;;18.03;;
30605;SDS011;17371;51.328;3.860;2023-06-22T13:55:34;36.33;;;19.13;;
30605;SDS011;17371;51.328;3.860;2023-06-22T13:58:01;31.77;;;18.30;;
30605;SDS011;17371;51.328;3.860;2023-06-22T14:00:27;34.40;;;19.23;;
30605;SDS011;17371;51.328;3.860;2023-06-22T14:02:52;36.87;;;19.73;;
30605;SDS011;17371;51.328;3.860;2023-06-22T14:05:17;39.97;;;20.90;;
30605;SDS011;17371;51.328;3.860;2023-06-22T14:07:43;41.30;;;21.17;;
30605;SDS011;17371;51.328;3.860;2023-06-22T14:10:08;42.43;;;21.70;;
30605;SDS011;17371;51.328;3.860;2023-06-22T14:12:34;42.90;;;21.75;;
30605;SDS011;17371;51.328;3.860;2023-06-22T14:15:01;41.33;;;22.97;;
30605;SDS011;17371;51.328;3.860;2023-06-22T14:17:26;44.53;;;22.63;;
30605;SDS011;17371;51.328;3.860;2023-06-22T14:19:52;42.77;;;23.47;;
30605;SDS011;17371;51.328;3.860;2023-06-22T14:22:17;47.17;;;24.23;;
30605;SDS011;17371;51.328;3.860;2023-06-22T14:24:43;47.60;;;25.07;;
30605;SDS011;17371;51.328;3.860;2023-06-22T14:27:08;47.03;;;24.27;;
30605;SDS011;17371;51.328;3.860;2023-06-22T14:29:33;47.10;;;24.38;;